Assaria, Kansas
Current Conditions -  °F | °C
As of 8:53 PM on Wednesday 22 Oct 2014 (Local Time) from KSLN Reporting Station
Light Rain Light Rain  
Wind Chill: 18°   Ceiling: 9000
Heat Index: 18°   Visibility: 10mi
Dew Point: 15°   Wind: 8mph
Humidity: 84%   Direction: 160°SSE
Pressure: 30.06"   Gusts: NA
Location:  38.68°N, 97.6°W
Report Text: KSLN 230153Z 16007KT 10SM -RA FEW075 OVC090 18/15 A3006 RMK AO2 RAB08 SLP172 P0001 T01780150
Loading
Personal Weather Stations






























Interactive Weather Map
Tropical Storm Tracking
New forecast layout! Learn more

10-Day Weather Forecast

Advertisements
Track Severe Weather on mobile